Time;durP1;ratioP1;P1;durP2;ratioP2;P2;SDS_P1;SDS_P2;PMS_P1;PMS_P2;Temp;Humidity;BMP_temperature;BMP_pressure;BME280_temperature;BME280_humidity;BME280_pressure;Samples;Min_cycle;Max_cycle;Signal;HPM_P1;HPM_P2
2022/10/22 00:02:18;;;;;;;31.17;5.40;;;;;;;13.38;100.00;100244.94;4939533;29;20503;-78
2022/10/22 00:05:22;;;;;;;24.15;5.05;;;;;;;13.39;100.00;100246.59;4939670;29;20046;-78
2022/10/22 00:08:26;;;;;;;16.58;4.05;;;;;;;13.36;100.00;100252.06;4939812;29;20071;-78
2022/10/22 00:11:30;;;;;;;11.70;4.20;;;;;;;13.38;100.00;100252.81;4939441;29;20514;-78
2022/10/22 00:14:34;;;;;;;22.52;5.55;;;;;;;13.37;100.00;100244.09;4939770;29;20107;-78
2022/10/22 00:17:37;;;;;;;12.93;4.57;;;;;;;13.27;100.00;100243.00;4939379;29;20106;-78
2022/10/22 00:20:41;;;;;;;24.40;5.30;;;;;;;13.27;100.00;100227.25;4939442;29;20055;-78
2022/10/22 00:23:45;;;;;;;41.45;5.07;;;;;;;13.37;100.00;100222.22;4939246;29;20127;-78
2022/10/22 00:26:48;;;;;;;27.55;5.40;;;;;;;13.46;100.00;100216.34;4939033;29;20153;-78
2022/10/22 00:29:51;;;;;;;9.27;4.88;;;;;;;13.44;100.00;100213.81;4938334;29;20544;-77
2022/10/22 00:32:56;;;;;;;15.52;5.43;;;;;;;13.40;100.00;100207.13;4939410;29;20099;-78
2022/10/22 00:35:59;;;;;;;35.33;5.25;;;;;;;13.41;100.00;100207.94;4939000;29;20046;-78
2022/10/22 00:39:03;;;;;;;8.18;4.70;;;;;;;13.34;100.00;100211.94;4939078;29;20042;-78
2022/10/22 00:42:11;;;;;;;44.65;4.88;;;;;;;13.35;100.00;100206.59;4939221;29;20470;-78
2022/10/22 00:45:18;;;;;;;32.58;4.68;;;;;;;13.36;100.00;100212.66;4937974;29;20059;-78
2022/10/22 00:48:32;;;;;;;27.58;5.57;;;;;;;13.39;100.00;100205.41;4938414;29;20042;-78
2022/10/22 00:51:35;;;;;;;11.80;5.05;;;;;;;13.48;100.00;100194.28;4938681;29;20086;-78
2022/10/22 00:54:40;;;;;;;26.55;4.93;;;;;;;13.38;100.00;100200.28;4938185;29;20118;-78
2022/10/22 00:57:43;;;;;;;8.98;4.93;;;;;;;13.37;100.00;100209.09;4938232;29;20175;-78
2022/10/22 01:00:47;;;;;;;10.00;4.10;;;;;;;13.27;100.00;100203.63;4938691;29;20139;-78
2022/10/22 01:03:54;;;;;;;5.85;3.53;;;;;;;13.31;100.00;100207.75;4937247;29;20054;-77
2022/10/22 01:06:58;;;;;;;11.10;3.20;;;;;;;13.40;100.00;100225.50;4937295;29;20071;-78
2022/10/22 01:10:18;;;;;;;6.95;3.63;;;;;;;13.33;100.00;100226.00;4938807;29;20055;-78
2022/10/22 01:13:44;;;;;;;7.55;2.33;;;;;;;13.41;100.00;100216.66;4938133;29;20122;-78
2022/10/22 01:17:23;;;;;;;5.75;2.22;;;;;;;13.33;100.00;100221.59;4915319;29;20506;-78
2022/10/22 01:21:16;;;;;;;4.22;1.80;;;;;;;13.53;100.00;100243.88;4903630;29;20050;-77
2022/10/22 01:24:31;;;;;;;6.90;2.65;;;;;;;13.30;100.00;100244.59;4937404;29;20050;-77
2022/10/22 01:27:53;;;;;;;5.90;2.08;;;;;;;13.19;100.00;100232.16;4937568;29;20106;-77
2022/10/22 01:31:00;;;;;;;5.07;2.55;;;;;;;13.29;100.00;100219.28;4936654;29;20419;-77
2022/10/22 01:34:05;;;;;;;6.65;2.35;;;;;;;13.33;100.00;100218.13;4937644;29;20090;-76
2022/10/22 01:37:11;;;;;;;4.50;2.17;;;;;;;13.34;100.00;100212.78;4937544;29;20054;-76
2022/10/22 01:40:17;;;;;;;4.20;1.77;;;;;;;13.30;100.00;100216.53;4936713;29;20062;-77
2022/10/22 01:43:21;;;;;;;6.53;1.77;;;;;;;13.36;100.00;100207.41;4937214;29;20110;-77
2022/10/22 01:46:28;;;;;;;5.80;2.38;;;;;;;13.32;100.00;100219.09;4937377;29;20114;-76
2022/10/22 01:49:49;;;;;;;5.53;1.67;;;;;;;13.32;100.00;100225.16;4937235;29;20107;-77
2022/10/22 01:53:09;;;;;;;7.38;2.20;;;;;;;13.40;100.00;100235.13;4936996;29;20141;-76
2022/10/22 01:56:46;;;;;;;5.30;1.80;;;;;;;13.44;100.00;100228.75;4936033;29;20127;-76
2022/10/22 01:59:59;;;;;;;7.10;2.35;;;;;;;13.32;100.00;100226.97;4935272;29;20055;-76
2022/10/22 02:03:12;;;;;;;5.78;2.60;;;;;;;13.33;100.00;100221.59;4936617;29;20104;-76
2022/10/22 02:06:20;;;;;;;5.13;1.70;;;;;;;13.36;100.00;100223.16;4936143;29;20103;-76
2022/10/22 02:09:28;;;;;;;7.57;1.50;;;;;;;13.38;100.00;100223.91;4936195;29;20051;-76
2022/10/22 02:12:33;;;;;;;7.25;2.00;;;;;;;13.35;100.00;100216.25;4935835;29;20090;-76
2022/10/22 02:15:38;;;;;;;6.00;1.90;;;;;;;13.35;100.00;100203.94;4936334;29;20051;-76
2022/10/22 02:18:45;;;;;;;9.48;1.67;;;;;;;13.40;100.00;100206.25;4936294;29;20185;-76
2022/10/22 02:21:48;;;;;;;6.25;1.70;;;;;;;13.54;100.00;100219.28;4935878;29;20100;-76
2022/10/22 02:24:53;;;;;;;6.00;1.45;;;;;;;13.43;100.00;100217.41;4935794;29;20110;-76
2022/10/22 02:28:31;;;;;;;9.05;1.55;;;;;;;13.43;100.00;100221.78;4936187;29;20435;-76
2022/10/22 02:31:41;;;;;;;10.80;1.52;;;;;;;13.43;100.00;100225.28;4934721;29;20107;-76
2022/10/22 02:34:48;;;;;;;6.25;1.27;;;;;;;13.55;100.00;100226.22;4935825;29;20046;-76
2022/10/22 02:37:56;;;;;;;8.95;1.83;;;;;;;13.58;100.00;100228.63;4936249;29;20131;-76
2022/10/22 02:41:00;;;;;;;4.35;1.10;;;;;;;13.61;100.00;100231.03;4937135;29;20066;-76
2022/10/22 02:44:08;;;;;;;5.43;1.27;;;;;;;13.71;100.00;100236.47;4937001;29;20191;-75
2022/10/22 02:47:11;;;;;;;8.88;2.00;;;;;;;13.59;100.00;100232.94;4936683;29;20102;-77
2022/10/22 02:50:15;;;;;;;5.43;1.40;;;;;;;13.57;100.00;100234.81;4936819;29;20127;-77
2022/10/22 02:53:19;;;;;;;6.32;1.75;;;;;;;13.48;100.00;100240.72;4937524;29;20043;-77
2022/10/22 02:56:22;;;;;;;4.05;1.08;;;;;;;13.47;100.00;100239.03;4939318;29;20099;-77
2022/10/22 02:59:26;;;;;;;4.95;1.38;;;;;;;13.47;100.00;100239.03;4937662;29;20098;-76
2022/10/22 03:02:31;;;;;;;11.63;1.83;;;;;;;13.47;100.00;100233.78;4943231;29;20183;-77
2022/10/22 03:05:35;;;;;;;4.32;1.20;;;;;;;13.48;100.00;100230.22;4955229;29;20136;-77
2022/10/22 03:08:38;;;;;;;8.25;1.10;;;;;;;13.53;100.00;100243.00;4953597;29;20068;-76
2022/10/22 03:11:42;;;;;;;10.00;1.40;;;;;;;13.55;100.00;100241.97;4938954;29;20208;-76
2022/10/22 03:14:46;;;;;;;11.18;1.35;;;;;;;13.51;100.00;100250.19;4934352;29;20570;-75
2022/10/22 03:17:49;;;;;;;20.98;2.78;;;;;;;13.55;100.00;100257.72;4934511;29;20058;-76
2022/10/22 03:21:30;;;;;;;7.95;1.27;;;;;;;13.53;100.00;100266.66;4934459;29;20082;-76
2022/10/22 03:24:41;;;;;;;8.40;1.83;;;;;;;13.54;100.00;100271.81;4933953;29;20051;-76
2022/10/22 03:27:45;;;;;;;7.55;1.30;;;;;;;13.56;100.00;100275.19;4934066;29;20098;-76
2022/10/22 03:30:48;;;;;;;15.80;1.40;;;;;;;13.55;100.00;100272.66;4934436;29;20039;-76
2022/10/22 03:33:52;;;;;;;9.88;1.75;;;;;;;13.60;100.00;100260.06;4934318;29;20107;-76
2022/10/22 03:36:58;;;;;;;17.35;2.40;;;;;;;13.60;100.00;100254.81;4934118;29;20100;-76
2022/10/22 03:40:04;;;;;;;11.38;1.70;;;;;;;13.53;100.00;100264.03;4934074;29;20504;-76
2022/10/22 03:43:08;;;;;;;10.10;1.70;;;;;;;13.29;100.00;100253.44;4934355;29;20102;-76
2022/10/22 03:56:32;;;;;;;8.32;1.52;;;;;;;13.12;100.00;100275.53;6396946;22;150681;-77
2022/10/22 03:59:41;;;;;;;17.45;1.45;;;;;;;13.07;100.00;100283.69;6346142;22;20025;-77
2022/10/22 04:02:45;;;;;;;17.63;2.20;;;;;;;13.14;100.00;100286.75;6346046;22;20037;-76
2022/10/22 04:05:49;;;;;;;12.98;1.50;;;;;;;13.13;100.00;100293.78;6346832;22;20512;-76
2022/10/22 04:08:53;;;;;;;9.23;1.60;;;;;;;13.18;100.00;100302.22;6346838;22;20503;-76
2022/10/22 04:11:58;;;;;;;17.27;1.98;;;;;;;13.25;100.00;100303.53;6346888;22;20021;-76
2022/10/22 04:15:04;;;;;;;15.35;1.70;;;;;;;13.21;100.00;100306.44;6346434;22;20022;-77
2022/10/22 04:18:09;;;;;;;12.30;1.85;;;;;;;13.22;100.00;100316.81;6346676;22;20462;-76
2022/10/22 04:21:16;;;;;;;14.98;1.30;;;;;;;13.33;100.00;100307.41;6346517;22;20021;-77
2022/10/22 04:24:20;;;;;;;17.50;1.70;;;;;;;13.30;100.00;100310.25;6346680;22;20022;-76
2022/10/22 04:27:24;;;;;;;11.38;1.70;;;;;;;13.39;100.00;100317.50;6346870;22;20076;-76
2022/10/22 04:30:28;;;;;;;12.18;1.58;;;;;;;13.35;100.00;100316.88;6346841;22;20024;-77
2022/10/22 04:33:33;;;;;;;11.07;2.60;;;;;;;13.34;100.00;100327.50;6346352;22;20299;-76
2022/10/22 04:36:38;;;;;;;14.38;1.52;;;;;;;13.30;100.00;100334.72;6345412;22;20488;-76
2022/10/22 04:39:42;;;;;;;14.57;2.53;;;;;;;13.32;100.00;100347.75;6346927;22;20350;-77
2022/10/22 04:42:46;;;;;;;11.05;1.80;;;;;;;13.39;100.00;100346.38;6346033;22;20025;-77
2022/10/22 04:45:49;;;;;;;14.05;2.33;;;;;;;13.37;100.00;100337.75;6346622;22;20048;-76
2022/10/22 04:48:54;;;;;;;10.57;1.70;;;;;;;13.44;100.00;100344.31;6346813;22;20111;-77
2022/10/22 04:51:58;;;;;;;12.80;2.50;;;;;;;13.38;100.00;100345.56;6346580;22;20064;-76
2022/10/22 04:55:01;;;;;;;8.07;1.85;;;;;;;13.31;100.00;100346.06;6346773;22;20055;-77
2022/10/22 04:58:05;;;;;;;13.65;2.00;;;;;;;13.10;100.00;100346.50;6339332;22;20452;-75
2022/10/22 05:01:18;;;;;;;12.38;1.90;;;;;;;13.07;100.00;100345.88;6339479;22;20489;-77
2022/10/22 05:04:22;;;;;;;11.77;2.00;;;;;;;13.24;100.00;100354.34;6339767;22;20068;-76
2022/10/22 05:07:26;;;;;;;13.85;2.20;;;;;;;13.23;100.00;100351.78;6338349;22;20026;-76
2022/10/22 05:10:30;;;;;;;15.10;1.75;;;;;;;13.23;100.00;100357.88;6339499;22;20038;-77
2022/10/22 05:13:34;;;;;;;13.88;1.58;;;;;;;13.22;100.00;100356.19;6339520;22;20025;-76
2022/10/22 05:16:38;;;;;;;10.77;2.17;;;;;;;13.29;100.00;100355.84;6339177;22;20030;-76
2022/10/22 05:19:42;;;;;;;16.73;1.92;;;;;;;13.33;100.00;100358.13;6339373;22;20022;-76
2022/10/22 05:22:47;;;;;;;8.82;1.73;;;;;;;13.29;100.00;100359.28;6339395;22;20022;-77
2022/10/22 05:25:50;;;;;;;9.95;2.10;;;;;;;13.28;100.00;100362.03;6339663;22;20041;-76
2022/10/22 05:28:54;;;;;;;8.32;1.90;;;;;;;13.34;100.00;100372.97;6339785;22;20025;-76
2022/10/22 05:31:57;;;;;;;8.95;2.15;;;;;;;13.30;100.00;100360.97;6339343;22;20072;-77
2022/10/22 05:35:01;;;;;;;12.98;1.95;;;;;;;13.25;100.00;100369.16;6339446;22;20056;-77
2022/10/22 05:38:09;;;;;;;13.88;1.83;;;;;;;13.21;100.00;100359.78;6338968;22;20029;-77
2022/10/22 05:41:22;;;;;;;25.60;2.83;;;;;;;13.20;100.00;100358.06;6339661;22;20022;-76
2022/10/22 05:44:25;;;;;;;19.27;1.50;;;;;;;13.23;100.00;100371.00;6339470;22;20025;-77
2022/10/22 05:47:39;;;;;;;18.67;2.50;;;;;;;13.19;100.00;100366.06;6332213;22;20048;-77
2022/10/22 05:50:45;;;;;;;26.20;2.85;;;;;;;13.20;100.00;100363.31;6338863;22;20072;-76
2022/10/22 05:53:56;;;;;;;6.95;3.00;;;;;;;13.15;100.00;100369.84;6338901;22;20063;-77
2022/10/22 05:57:00;;;;;;;14.00;2.58;;;;;;;13.12;100.00;100375.28;6338821;22;20354;-77
2022/10/22 06:00:04;;;;;;;14.60;1.98;;;;;;;12.98;100.00;100390.13;6338881;22;20095;-77
2022/10/22 06:03:08;;;;;;;14.55;2.58;;;;;;;13.00;100.00;100377.75;6339200;22;20067;-77
2022/10/22 06:06:13;;;;;;;18.42;2.17;;;;;;;13.07;100.00;100377.38;6339307;22;20037;-77
2022/10/22 06:09:21;;;;;;;24.90;3.15;;;;;;;13.12;100.00;100370.88;6345928;22;20026;-77
2022/10/22 06:12:25;;;;;;;17.25;2.75;;;;;;;13.20;100.00;100375.63;6339574;22;20028;-77
2022/10/22 06:15:29;;;;;;;10.75;2.05;;;;;;;13.18;100.00;100380.97;6339544;22;20057;-76
2022/10/22 06:18:32;;;;;;;19.63;2.33;;;;;;;13.25;100.00;100390.16;6353616;22;20044;-77
2022/10/22 06:21:36;;;;;;;20.42;2.60;;;;;;;13.20;100.00;100389.56;6354792;22;20102;-77
2022/10/22 06:24:40;;;;;;;15.82;2.80;;;;;;;13.20;100.00;100384.34;6339791;22;20075;-76
2022/10/22 06:27:49;;;;;;;35.90;5.72;;;;;;;13.22;100.00;100395.59;6339614;22;20021;-76
2022/10/22 06:30:53;;;;;;;40.03;3.53;;;;;;;13.08;100.00;100405.28;6339096;22;20120;-77
2022/10/22 06:33:57;;;;;;;55.30;3.97;;;;;;;12.95;100.00;100415.72;6338314;22;20044;-77
2022/10/22 06:37:01;;;;;;;39.85;3.35;;;;;;;12.89;100.00;100426.63;6338976;22;20072;-77
2022/10/22 06:40:05;;;;;;;24.55;3.47;;;;;;;12.88;100.00;100433.66;6339269;22;20203;-77
2022/10/22 06:43:13;;;;;;;33.38;3.72;;;;;;;12.94;100.00;100435.06;6338881;22;20021;-76
2022/10/22 06:46:20;;;;;;;62.83;4.15;;;;;;;12.95;100.00;100441.97;6338898;22;20049;-76
2022/10/22 06:49:26;;;;;;;40.65;3.55;;;;;;;12.89;100.00;100439.75;6339239;22;20098;-77
2022/10/22 06:53:36;;;;;;;39.55;3.40;;;;;;;12.89;100.00;100447.59;6339327;22;20029;-77
2022/10/22 06:56:39;;;;;;;67.00;3.95;;;;;;;13.01;100.00;100463.41;6338627;22;20025;-77
2022/10/22 06:59:45;;;;;;;72.47;3.58;;;;;;;13.03;100.00;100463.34;6338464;22;20027;-76
2022/10/22 07:02:52;;;;;;;61.53;3.10;;;;;;;13.04;100.00;100475.50;6338280;22;20029;-76
2022/10/22 07:06:01;;;;;;;38.17;2.90;;;;;;;13.00;100.00;100468.78;6338399;22;20396;-77
2022/10/22 07:09:08;;;;;;;35.63;2.28;;;;;;;13.04;100.00;100480.75;6320311;22;20029;-76
2022/10/22 07:12:16;;;;;;;53.55;2.22;;;;;;;12.96;100.00;100491.75;6339293;22;20060;-76
2022/10/22 07:15:23;;;;;;;13.73;1.58;;;;;;;12.99;100.00;100493.34;6338804;22;20018;-77
2022/10/22 07:23:36;;;;;;;13.48;1.48;;;;;;;12.97;100.00;100500.47;6325123;22;20044;-77
2022/10/22 07:26:41;;;;;;;10.15;1.20;;;;;;;13.04;100.00;100507.84;6339727;22;20069;-76
2022/10/22 07:29:48;;;;;;;5.95;1.05;;;;;;;13.01;100.00;100505.41;6339142;22;20025;-76
2022/10/22 07:32:53;;;;;;;7.45;1.40;;;;;;;13.08;100.00;100505.91;6338954;22;20029;-76
2022/10/22 07:36:04;;;;;;;6.63;1.33;;;;;;;13.05;100.00;100508.72;6338687;22;20041;-77
2022/10/22 07:39:08;;;;;;;4.72;1.10;;;;;;;13.04;100.00;100514.88;6339750;22;20071;-77
2022/10/22 07:42:13;;;;;;;4.95;1.00;;;;;;;12.99;100.00;100524.84;6338812;22;20075;-77
2022/10/22 07:45:20;;;;;;;4.70;0.88;;;;;;;13.11;100.00;100521.44;6338161;22;20136;-77
2022/10/22 07:48:27;;;;;;;3.75;1.10;;;;;;;13.06;100.00;100518.28;6339199;22;20072;-77
2022/10/22 07:51:31;;;;;;;6.70;1.10;;;;;;;13.08;100.00;100521.66;6339052;22;20074;-78
2022/10/22 07:54:36;;;;;;;5.60;1.23;;;;;;;13.09;100.00;100525.13;6338657;22;20022;-75
2022/10/22 07:57:42;;;;;;;4.68;1.40;;;;;;;13.16;100.00;100523.78;6338546;22;20026;-75
2022/10/22 08:00:47;;;;;;;8.52;1.85;;;;;;;13.22;100.00;100526.88;6338950;22;20076;-76
2022/10/22 08:03:51;;;;;;;6.57;1.30;;;;;;;13.36;100.00;100527.81;6341318;22;20080;-76
2022/10/22 08:06:56;;;;;;;5.50;1.20;;;;;;;13.42;100.00;100532.66;6339923;22;20049;-77
2022/10/22 08:10:00;;;;;;;6.50;1.08;;;;;;;13.47;100.00;100543.72;6339201;22;20529;-76
2022/10/22 08:13:06;;;;;;;8.05;1.08;;;;;;;13.47;100.00;100538.47;6338836;22;20026;-76
2022/10/22 08:16:10;;;;;;;6.00;1.15;;;;;;;13.52;100.00;100525.88;6338363;22;20033;-76
2022/10/22 08:19:17;;;;;;;8.07;2.55;;;;;;;13.43;100.00;100531.72;6338879;22;20098;-76
2022/10/22 08:22:22;;;;;;;7.13;1.38;;;;;;;13.47;100.00;100546.34;6338574;22;20045;-76
2022/10/22 08:25:29;;;;;;;8.30;1.48;;;;;;;13.55;100.00;100538.81;6338629;22;20065;-76
2022/10/22 08:28:35;;;;;;;12.30;1.65;;;;;;;13.69;100.00;100540.56;6337907;22;20156;-76
2022/10/22 08:31:39;;;;;;;7.47;1.27;;;;;;;13.75;100.00;100547.19;6339616;22;20026;-76
2022/10/22 08:34:43;;;;;;;4.55;1.10;;;;;;;13.90;100.00;100551.44;6339594;22;20063;-77
2022/10/22 08:37:46;;;;;;;6.13;1.30;;;;;;;13.98;100.00;100556.22;6341723;22;20099;-75
2022/10/22 08:41:02;;;;;;;9.07;1.50;;;;;;;14.00;100.00;100555.16;6340576;22;20076;-76
2022/10/22 08:44:12;;;;;;;6.55;1.30;;;;;;;14.25;100.00;100558.78;6340106;22;20069;-76
2022/10/22 08:47:50;;;;;;;8.15;1.30;;;;;;;14.49;100.00;100562.41;6340543;22;20064;-77
2022/10/22 08:50:56;;;;;;;3.97;1.30;;;;;;;14.63;100.00;100561.47;6341101;22;20041;-76
2022/10/22 08:54:24;;;;;;;11.85;1.50;;;;;;;14.68;100.00;100561.16;6340532;22;20515;-76
2022/10/22 08:57:38;;;;;;;5.63;1.52;;;;;;;14.76;96.15;100564.09;6339833;22;20057;-76
2022/10/22 09:00:45;;;;;;;3.70;1.05;;;;;;;15.01;92.35;100556.19;6343072;22;20029;-76
2022/10/22 09:04:24;;;;;;;9.02;1.13;;;;;;;15.18;92.79;100567.31;6340246;22;20084;-76
2022/10/22 09:07:28;;;;;;;5.90;1.10;;;;;;;15.19;90.31;100575.13;6340249;22;20072;-76
2022/10/22 09:10:37;;;;;;;5.38;1.17;;;;;;;15.26;89.41;100575.53;6341207;22;20026;-76
2022/10/22 09:13:50;;;;;;;14.10;7.93;;;;;;;15.26;87.92;100575.53;6340106;22;20452;-76
2022/10/22 09:17:19;;;;;;;16.50;6.03;;;;;;;15.30;89.21;100576.97;6341524;22;20044;-77
2022/10/22 09:20:33;;;;;;;8.18;3.05;;;;;;;15.33;91.25;100587.31;6340978;22;20026;-77
2022/10/22 09:23:56;;;;;;;12.13;2.10;;;;;;;15.30;90.49;100588.34;6340901;22;20071;-76
2022/10/22 09:27:30;;;;;;;14.23;4.93;;;;;;;15.40;89.68;100591.19;6339750;22;20485;-75
2022/10/22 09:30:38;;;;;;;9.80;2.03;;;;;;;15.42;87.48;100591.94;6340535;22;20021;-76
2022/10/22 09:33:45;;;;;;;9.57;2.83;;;;;;;15.59;86.65;100588.06;6343503;22;20025;-77
2022/10/22 09:37:01;;;;;;;11.15;3.85;;;;;;;15.71;85.86;100587.22;6340533;22;20098;-77
2022/10/22 09:40:05;;;;;;;17.15;7.20;;;;;;;15.83;84.80;100589.94;6340625;22;20076;-77
2022/10/22 09:43:11;;;;;;;13.10;6.70;;;;;;;15.83;84.30;100590.75;6340436;22;20037;-77
2022/10/22 09:46:24;;;;;;;12.10;3.53;;;;;;;15.78;84.03;100606.06;6340058;22;20071;-77
2022/10/22 09:49:35;;;;;;;8.57;1.30;;;;;;;15.81;85.31;100604.03;6340140;22;20025;-77
2022/10/22 09:52:39;;;;;;;10.13;2.60;;;;;;;15.70;86.55;100605.78;6340512;22;20079;-77
2022/10/22 09:55:47;;;;;;;8.93;3.17;;;;;;;15.70;85.36;100603.16;6341967;22;20017;-77
2022/10/22 09:58:56;;;;;;;16.08;8.13;;;;;;;15.76;86.13;100605.31;6343445;22;20044;-76
2022/10/22 10:02:21;;;;;;;10.63;3.78;;;;;;;15.79;84.93;100613.88;6345658;22;20052;-75
2022/10/22 10:05:36;;;;;;;10.10;3.80;;;;;;;16.01;82.26;100610.47;6358193;22;20021;-76
2022/10/22 10:08:40;;;;;;;21.52;13.10;;;;;;;16.08;81.91;100610.03;6341578;22;20030;-76
2022/10/22 10:12:23;;;;;;;11.60;3.10;;;;;;;16.10;79.14;100616.88;6340431;22;20021;-77
2022/10/22 10:16:15;;;;;;;8.65;1.75;;;;;;;16.21;80.34;100606.41;6341837;22;20045;-80
2022/10/22 10:20:17;;;;;;;13.00;7.20;;;;;;;16.28;80.56;100601.50;6344094;22;20041;-76
2022/10/22 10:23:38;;;;;;;11.77;6.20;;;;;;;16.24;79.52;100605.31;6340832;22;20072;-76
2022/10/22 10:26:52;;;;;;;11.63;5.57;;;;;;;16.09;79.85;100603.81;6340204;22;20026;-76
2022/10/22 10:30:19;;;;;;;12.60;4.68;;;;;;;16.21;78.63;100608.19;6340014;22;20099;-75
2022/10/22 10:33:48;;;;;;;6.75;2.30;;;;;;;16.25;81.80;100607.84;6339343;22;20358;-76
2022/10/22 10:37:16;;;;;;;9.70;2.80;;;;;;;16.24;79.30;100615.84;6339069;22;20056;-76
2022/10/22 10:40:32;;;;;;;11.80;1.67;;;;;;;16.31;77.97;100618.91;6338551;22;20022;-76
2022/10/22 10:43:54;;;;;;;10.13;1.80;;;;;;;16.30;78.59;100620.69;6338381;22;20071;-76
2022/10/22 10:47:21;;;;;;;13.10;5.90;;;;;;;16.45;78.68;100622.16;6341899;22;20292;-75
2022/10/22 10:50:41;;;;;;;11.93;2.90;;;;;;;16.52;77.89;100625.19;6338189;22;20392;-75
2022/10/22 10:54:17;;;;;;;9.65;4.18;;;;;;;16.60;77.10;100629.91;6336861;22;20354;-76
2022/10/22 10:57:54;;;;;;;24.38;12.20;;;;;;;16.74;76.39;100624.41;6338426;22;20025;-76
2022/10/22 11:01:13;;;;;;;28.80;15.75;;;;;;;16.74;75.88;100629.69;6337504;22;20400;-76
2022/10/22 11:04:39;;;;;;;15.63;6.97;;;;;;;16.73;75.48;100626.19;6338086;22;20068;-76
2022/10/22 11:08:03;;;;;;;9.75;2.55;;;;;;;16.73;76.84;100628.00;6338687;22;20481;-77
2022/10/22 11:11:22;;;;;;;21.90;13.43;;;;;;;16.79;75.56;100627.56;6338879;22;20045;-77
2022/10/22 11:14:52;;;;;;;17.27;3.33;;;;;;;16.75;75.53;100647.22;6338321;22;20037;-77
2022/10/22 11:18:03;;;;;;;7.43;2.13;;;;;;;16.74;73.83;100634.97;6338924;22;20040;-76
2022/10/22 11:21:15;;;;;;;9.07;1.80;;;;;;;16.77;73.37;100637.41;6338927;22;20091;-76
2022/10/22 11:24:24;;;;;;;14.05;2.72;;;;;;;16.76;74.47;100635.72;6338384;22;20021;-77
2022/10/22 11:27:42;;;;;;;7.13;1.83;;;;;;;16.74;72.36;100661.38;6338686;22;20145;-76
2022/10/22 11:30:55;;;;;;;7.53;3.85;;;;;;;16.76;73.22;100633.09;6335700;22;20394;-76
2022/10/22 11:34:24;;;;;;;7.50;2.38;;;;;;;16.83;71.98;100639.56;6336598;22;20049;-76
2022/10/22 11:37:34;;;;;;;8.95;3.78;;;;;;;16.90;72.13;100640.78;6337770;22;20067;-77
2022/10/22 11:41:12;;;;;;;10.40;2.88;;;;;;;16.83;71.66;100636.94;6336112;22;20346;-77
2022/10/22 11:44:24;;;;;;;11.18;2.78;;;;;;;16.87;71.92;100633.09;6311014;22;20068;-77
2022/10/22 11:47:32;;;;;;;12.82;7.18;;;;;;;16.86;72.95;100634.06;6337342;22;20026;-76
2022/10/22 11:50:56;;;;;;;9.63;3.17;;;;;;;16.92;72.35;100630.94;6337716;22;20123;-77
2022/10/22 11:54:02;;;;;;;6.43;2.67;;;;;;;16.92;72.15;100633.59;6337975;22;20099;-77
2022/10/22 11:57:15;;;;;;;10.88;4.18;;;;;;;17.02;71.74;100632.88;6337430;22;20026;-77
2022/10/22 12:00:45;;;;;;;11.00;4.68;;;;;;;17.25;69.39;100628.44;6338048;22;20468;-76
2022/10/22 12:03:52;;;;;;;8.18;2.60;;;;;;;17.15;70.57;100628.31;6336600;22;20025;-76
2022/10/22 12:06:59;;;;;;;8.85;2.55;;;;;;;17.07;70.60;100625.41;6338741;22;20053;-76
2022/10/22 12:10:17;;;;;;;6.47;2.95;;;;;;;17.19;70.79;100621.81;6339779;22;20072;-76
2022/10/22 12:13:26;;;;;;;7.75;2.33;;;;;;;17.28;69.45;100626.38;6339873;22;20026;-78
2022/10/22 12:16:39;;;;;;;8.70;3.45;;;;;;;17.31;68.49;100618.22;6339646;22;20068;-77
2022/10/22 12:19:43;;;;;;;6.15;2.60;;;;;;;17.28;70.26;100634.31;6340852;22;20338;-77
2022/10/22 12:22:47;;;;;;;4.38;1.70;;;;;;;17.27;69.47;100624.72;6340676;22;20021;-80
2022/10/22 12:25:52;;;;;;;15.63;6.25;;;;;;;17.24;69.67;100632.88;6340166;22;20067;-77
2022/10/22 12:29:00;;;;;;;6.85;1.70;;;;;;;17.16;69.89;100630.00;6340049;22;20052;-78
2022/10/22 12:32:05;;;;;;;7.28;2.03;;;;;;;17.09;68.35;100620.88;6339961;22;20025;-78
2022/10/22 12:35:19;;;;;;;13.77;1.92;;;;;;;17.03;68.57;100630.09;6338211;22;20045;-77
2022/10/22 12:38:24;;;;;;;5.93;1.25;;;;;;;17.03;68.71;100629.25;6339653;22;20341;-78
2022/10/22 12:41:33;;;;;;;8.82;1.50;;;;;;;17.24;68.04;100626.75;6339707;22;20464;-77
2022/10/22 12:44:37;;;;;;;8.27;1.88;;;;;;;17.41;68.21;100629.75;6340264;22;20021;-77
2022/10/22 12:47:49;;;;;;;8.60;1.48;;;;;;;17.53;67.49;100621.81;6341786;22;20079;-77
2022/10/22 12:51:02;;;;;;;7.07;1.95;;;;;;;17.48;67.72;100624.81;6339507;22;20068;-78
2022/10/22 12:54:13;;;;;;;7.35;1.73;;;;;;;17.52;67.96;100614.84;6341287;22;20022;-77
2022/10/22 12:57:20;;;;;;;6.00;1.35;;;;;;;17.49;67.27;100610.66;6340706;22;20345;-78
2022/10/22 13:00:26;;;;;;;7.25;1.50;;;;;;;17.53;68.11;100616.53;6341679;22;20072;-81
2022/10/22 13:03:39;;;;;;;5.05;1.70;;;;;;;17.68;67.94;100615.28;6340142;22;20087;-76
2022/10/22 13:06:44;;;;;;;5.35;1.40;;;;;;;17.82;66.03;100628.25;6339369;22;20059;-76
2022/10/22 13:10:18;;;;;;;5.07;1.50;;;;;;;17.86;65.17;100623.56;6340835;22;20481;-81
2022/10/22 13:13:40;;;;;;;4.38;2.03;;;;;;;17.90;65.53;100622.38;6339365;22;20021;-76
2022/10/22 13:17:11;;;;;;;7.37;2.20;;;;;;;17.87;66.34;100620.81;6338876;22;20099;-77
2022/10/22 13:20:22;;;;;;;4.35;1.27;;;;;;;17.78;66.17;100608.31;6338823;22;20060;-77
2022/10/22 13:23:27;;;;;;;6.80;2.17;;;;;;;17.69;67.25;100616.97;6339272;22;20469;-79
2022/10/22 13:26:36;;;;;;;6.65;1.70;;;;;;;17.49;67.42;100615.09;6338269;22;20022;-81
2022/10/22 13:29:43;;;;;;;6.93;2.22;;;;;;;17.47;68.43;100614.38;6339191;22;20029;-77
2022/10/22 13:32:56;;;;;;;4.72;1.20;;;;;;;17.37;69.96;100607.16;6338968;22;20465;-77
2022/10/22 13:36:00;;;;;;;5.82;1.38;;;;;;;17.29;73.29;100614.00;6338887;22;20334;-77
2022/10/22 13:39:07;;;;;;;8.10;1.25;;;;;;;17.13;71.18;100609.09;6335879;22;20095;-77
2022/10/22 13:42:13;;;;;;;5.90;1.17;;;;;;;17.13;70.56;100601.16;6337329;22;20026;-77
2022/10/22 13:45:17;;;;;;;7.18;2.00;;;;;;;17.24;69.17;100603.81;6338777;22;20017;-75
2022/10/22 13:48:24;;;;;;;10.23;1.73;;;;;;;17.29;69.35;100601.63;6338825;22;20057;-76
2022/10/22 13:51:34;;;;;;;12.15;6.45;;;;;;;17.32;68.94;100606.69;6338090;22;20079;-76
2022/10/22 13:54:37;;;;;;;10.57;4.03;;;;;;;17.36;69.23;100610.78;6339009;22;20021;-77
2022/10/22 13:57:41;;;;;;;7.35;2.80;;;;;;;17.38;70.80;100598.25;6338610;22;20071;-77
2022/10/22 14:00:48;;;;;;;8.10;2.15;;;;;;;17.29;72.71;100604.28;6337662;22;20069;-76
2022/10/22 14:04:00;;;;;;;13.00;1.95;;;;;;;17.25;72.27;100594.91;6338730;22;20029;-77
2022/10/22 14:07:12;;;;;;;13.30;1.95;;;;;;;17.14;80.57;100605.50;6338196;22;20068;-77
2022/10/22 14:10:20;;;;;;;8.88;1.67;;;;;;;17.21;81.47;100598.78;6339380;22;20388;-77
2022/10/22 14:13:25;;;;;;;15.07;1.63;;;;;;;17.31;82.02;100601.53;6338610;22;20025;-77
2022/10/22 14:16:31;;;;;;;11.98;1.50;;;;;;;17.25;82.47;100602.00;6339981;22;20018;-77
2022/10/22 14:19:35;;;;;;;11.90;3.13;;;;;;;17.14;82.09;100605.50;6338827;22;20021;-76
2022/10/22 14:22:40;;;;;;;6.85;1.60;;;;;;;17.00;77.32;100601.28;6338048;22;20021;-77
2022/10/22 14:25:43;;;;;;;10.05;2.50;;;;;;;17.05;80.32;100600.94;6339018;22;20452;-76
2022/10/22 14:28:47;;;;;;;15.55;3.78;;;;;;;17.13;79.33;100603.81;6338263;22;20088;-76
2022/10/22 14:31:50;;;;;;;9.32;3.83;;;;;;;17.25;78.74;100605.50;6338516;22;20096;-76
2022/10/22 14:34:54;;;;;;;13.55;4.28;;;;;;;17.28;81.22;100596.47;6338499;22;20033;-77
2022/10/22 14:37:57;;;;;;;16.35;3.63;;;;;;;17.34;81.88;100596.00;6337420;22;20185;-76
2022/10/22 14:41:17;;;;;;;22.00;1.80;;;;;;;17.36;84.59;100594.91;6338227;22;20073;-77
2022/10/22 14:44:24;;;;;;;26.95;2.03;;;;;;;17.45;84.48;100603.91;6338104;22;20343;-77
2022/10/22 14:47:27;;;;;;;16.50;2.03;;;;;;;17.40;85.76;100609.56;6338600;22;20354;-76
2022/10/22 14:50:31;;;;;;;19.88;1.98;;;;;;;17.40;86.10;100604.28;6338690;22;20026;-77